Terminal Aerodrome Forecast
Issued by NWS

Home | Current Version | Previous Version | Text Only | Print | Product List | Glossary On
Versions: 1 2 3 4 5 6 7 8 9 10 11 12 13 14 15 16 17 18 19 20 21 22 23 24 25 26 27 28 29 30 31 32 33 34 35
000
FTUS46 KOTX 211130
TAFCOE
TAF
KCOE 211130Z 2112/2212 25015G24KT P6SM BKN009 OVC018 WS020/23043KT
     FM211500 24018G29KT P6SM BKN015 OVC025
     FM212200 24016G26KT P6SM BKN050 BKN150
     FM220300 24009KT P6SM BKN007
      AMD LTD TO CLD AND VIS=

USA.gov is the U.S. government's official web portal to all federal, state and local government web resources and services.